sensor_id;sensor_type;location;lat;lon;timestamp;P1;durP1;ratioP1;P2;durP2;ratioP2
17065;SDS011;23120;52.336;21.182;2022-09-09T00:02:08;8.93;;;6.20;;
17065;SDS011;23120;52.336;21.182;2022-09-09T00:04:45;9.00;;;5.83;;
17065;SDS011;23120;52.336;21.182;2022-09-09T00:07:22;7.20;;;5.73;;
17065;SDS011;23120;52.336;21.182;2022-09-09T00:09:59;9.10;;;6.33;;
17065;SDS011;23120;52.336;21.182;2022-09-09T00:12:37;7.77;;;5.93;;
17065;SDS011;23120;52.336;21.182;2022-09-09T00:15:11;7.47;;;6.00;;
17065;SDS011;23120;52.336;21.182;2022-09-09T00:17:42;7.93;;;5.53;;
17065;SDS011;23120;52.336;21.182;2022-09-09T00:20:16;8.30;;;5.97;;
17065;SDS011;23120;52.336;21.182;2022-09-09T00:22:50;8.20;;;5.70;;
17065;SDS011;23120;52.336;21.182;2022-09-09T00:25:26;7.03;;;5.87;;
17065;SDS011;23120;52.336;21.182;2022-09-09T00:27:59;6.50;;;5.60;;
17065;SDS011;23120;52.336;21.182;2022-09-09T00:30:27;12.20;;;6.47;;
17065;SDS011;23120;52.336;21.182;2022-09-09T00:32:58;9.93;;;6.03;;
17065;SDS011;23120;52.336;21.182;2022-09-09T00:35:29;9.80;;;6.37;;
17065;SDS011;23120;52.336;21.182;2022-09-09T00:38:00;8.80;;;6.80;;
17065;SDS011;23120;52.336;21.182;2022-09-09T00:40:33;8.30;;;6.17;;
17065;SDS011;23120;52.336;21.182;2022-09-09T00:43:09;7.67;;;5.63;;
17065;SDS011;23120;52.336;21.182;2022-09-09T00:45:52;10.33;;;6.10;;
17065;SDS011;23120;52.336;21.182;2022-09-09T00:48:32;8.17;;;6.00;;
17065;SDS011;23120;52.336;21.182;2022-09-09T00:51:08;9.30;;;6.00;;
17065;SDS011;23120;52.336;21.182;2022-09-09T00:53:51;8.43;;;5.90;;
17065;SDS011;23120;52.336;21.182;2022-09-09T00:56:30;7.40;;;5.83;;
17065;SDS011;23120;52.336;21.182;2022-09-09T00:59:11;8.90;;;6.43;;
17065;SDS011;23120;52.336;21.182;2022-09-09T01:01:45;11.30;;;6.47;;
17065;SDS011;23120;52.336;21.182;2022-09-09T01:04:13;7.53;;;6.27;;
17065;SDS011;23120;52.336;21.182;2022-09-09T01:06:47;9.40;;;6.77;;
17065;SDS011;23120;52.336;21.182;2022-09-09T01:09:19;9.77;;;6.90;;
17065;SDS011;23120;52.336;21.182;2022-09-09T01:11:52;10.10;;;7.03;;
17065;SDS011;23120;52.336;21.182;2022-09-09T01:14:30;9.83;;;6.67;;
17065;SDS011;23120;52.336;21.182;2022-09-09T01:17:08;8.47;;;6.70;;
17065;SDS011;23120;52.336;21.182;2022-09-09T01:19:45;7.03;;;6.27;;
17065;SDS011;23120;52.336;21.182;2022-09-09T01:22:25;7.03;;;6.07;;
17065;SDS011;23120;52.336;21.182;2022-09-09T01:25:11;7.23;;;5.53;;
17065;SDS011;23120;52.336;21.182;2022-09-09T01:27:56;11.50;;;6.40;;
17065;SDS011;23120;52.336;21.182;2022-09-09T01:30:25;9.73;;;6.20;;
17065;SDS011;23120;52.336;21.182;2022-09-09T01:32:56;8.90;;;6.63;;
17065;SDS011;23120;52.336;21.182;2022-09-09T01:35:29;8.23;;;6.43;;
17065;SDS011;23120;52.336;21.182;2022-09-09T01:38:06;13.47;;;6.90;;
17065;SDS011;23120;52.336;21.182;2022-09-09T01:40:33;7.93;;;6.40;;
17065;SDS011;23120;52.336;21.182;2022-09-09T01:43:02;7.03;;;6.33;;
17065;SDS011;23120;52.336;21.182;2022-09-09T01:45:29;12.03;;;6.20;;
17065;SDS011;23120;52.336;21.182;2022-09-09T01:47:57;9.07;;;6.87;;
17065;SDS011;23120;52.336;21.182;2022-09-09T01:50:38;7.87;;;6.33;;
17065;SDS011;23120;52.336;21.182;2022-09-09T01:53:05;9.67;;;7.23;;
17065;SDS011;23120;52.336;21.182;2022-09-09T01:55:35;9.20;;;7.00;;
17065;SDS011;23120;52.336;21.182;2022-09-09T01:58:18;8.30;;;6.90;;
17065;SDS011;23120;52.336;21.182;2022-09-09T02:00:56;7.00;;;6.07;;
17065;SDS011;23120;52.336;21.182;2022-09-09T02:03:28;7.33;;;6.57;;
17065;SDS011;23120;52.336;21.182;2022-09-09T02:06:10;9.47;;;7.03;;
17065;SDS011;23120;52.336;21.182;2022-09-09T02:08:52;9.50;;;7.13;;
17065;SDS011;23120;52.336;21.182;2022-09-09T02:11:23;8.30;;;6.60;;
17065;SDS011;23120;52.336;21.182;2022-09-09T02:14:04;8.30;;;7.13;;
17065;SDS011;23120;52.336;21.182;2022-09-09T02:16:38;11.93;;;6.87;;
17065;SDS011;23120;52.336;21.182;2022-09-09T02:19:11;9.63;;;7.07;;
17065;SDS011;23120;52.336;21.182;2022-09-09T02:21:54;8.23;;;6.77;;
17065;SDS011;23120;52.336;21.182;2022-09-09T02:24:23;10.47;;;7.80;;
17065;SDS011;23120;52.336;21.182;2022-09-09T02:27:03;7.80;;;6.33;;
17065;SDS011;23120;52.336;21.182;2022-09-09T02:29:36;10.13;;;6.43;;
17065;SDS011;23120;52.336;21.182;2022-09-09T02:32:08;7.83;;;6.37;;
17065;SDS011;23120;52.336;21.182;2022-09-09T02:34:39;9.13;;;6.60;;
17065;SDS011;23120;52.336;21.182;2022-09-09T02:37:10;10.30;;;6.30;;
17065;SDS011;23120;52.336;21.182;2022-09-09T02:39:43;7.60;;;5.63;;
17065;SDS011;23120;52.336;21.182;2022-09-09T02:42:13;12.47;;;6.13;;
17065;SDS011;23120;52.336;21.182;2022-09-09T02:44:43;6.33;;;5.73;;
17065;SDS011;23120;52.336;21.182;2022-09-09T02:47:15;8.17;;;6.37;;
17065;SDS011;23120;52.336;21.182;2022-09-09T02:49:51;8.93;;;6.27;;
17065;SDS011;23120;52.336;21.182;2022-09-09T02:52:30;9.20;;;6.07;;
17065;SDS011;23120;52.336;21.182;2022-09-09T02:55:04;6.63;;;5.37;;
17065;SDS011;23120;52.336;21.182;2022-09-09T02:57:38;10.97;;;5.87;;
17065;SDS011;23120;52.336;21.182;2022-09-09T03:00:09;9.63;;;6.40;;
17065;SDS011;23120;52.336;21.182;2022-09-09T03:02:38;9.27;;;6.63;;
17065;SDS011;23120;52.336;21.182;2022-09-09T03:05:06;9.80;;;6.57;;
17065;SDS011;23120;52.336;21.182;2022-09-09T03:07:33;9.70;;;6.40;;
17065;SDS011;23120;52.336;21.182;2022-09-09T03:10:00;12.33;;;6.43;;
17065;SDS011;23120;52.336;21.182;2022-09-09T03:12:27;9.17;;;5.77;;
17065;SDS011;23120;52.336;21.182;2022-09-09T03:14:54;9.43;;;6.43;;
17065;SDS011;23120;52.336;21.182;2022-09-09T03:17:23;13.77;;;6.47;;
17065;SDS011;23120;52.336;21.182;2022-09-09T03:19:54;8.50;;;6.70;;
17065;SDS011;23120;52.336;21.182;2022-09-09T03:22:22;10.50;;;6.10;;
17065;SDS011;23120;52.336;21.182;2022-09-09T03:24:50;10.20;;;6.83;;
17065;SDS011;23120;52.336;21.182;2022-09-09T03:27:17;11.93;;;7.27;;
17065;SDS011;23120;52.336;21.182;2022-09-09T03:29:45;8.10;;;7.10;;
17065;SDS011;23120;52.336;21.182;2022-09-09T03:32:18;10.20;;;6.27;;
17065;SDS011;23120;52.336;21.182;2022-09-09T03:34:49;9.33;;;6.40;;
17065;SDS011;23120;52.336;21.182;2022-09-09T03:37:16;13.70;;;6.47;;
17065;SDS011;23120;52.336;21.182;2022-09-09T03:39:44;7.87;;;6.13;;
17065;SDS011;23120;52.336;21.182;2022-09-09T03:42:12;7.10;;;6.23;;
17065;SDS011;23120;52.336;21.182;2022-09-09T03:44:44;8.47;;;6.57;;
17065;SDS011;23120;52.336;21.182;2022-09-09T03:47:12;7.67;;;5.67;;
17065;SDS011;23120;52.336;21.182;2022-09-09T03:49:39;9.40;;;6.70;;
17065;SDS011;23120;52.336;21.182;2022-09-09T03:52:07;6.63;;;5.90;;
17065;SDS011;23120;52.336;21.182;2022-09-09T03:54:36;8.87;;;6.20;;
17065;SDS011;23120;52.336;21.182;2022-09-09T03:57:05;7.97;;;6.10;;
17065;SDS011;23120;52.336;21.182;2022-09-09T03:59:32;6.80;;;6.00;;
17065;SDS011;23120;52.336;21.182;2022-09-09T04:02:00;7.40;;;6.43;;
17065;SDS011;23120;52.336;21.182;2022-09-09T04:04:27;8.17;;;6.27;;
17065;SDS011;23120;52.336;21.182;2022-09-09T04:06:54;9.23;;;5.77;;
17065;SDS011;23120;52.336;21.182;2022-09-09T04:09:23;8.57;;;6.37;;
17065;SDS011;23120;52.336;21.182;2022-09-09T04:11:51;8.23;;;5.80;;
17065;SDS011;23120;52.336;21.182;2022-09-09T04:14:19;6.30;;;5.70;;
17065;SDS011;23120;52.336;21.182;2022-09-09T04:16:47;6.93;;;6.23;;
17065;SDS011;23120;52.336;21.182;2022-09-09T04:19:14;6.50;;;5.73;;
17065;SDS011;23120;52.336;21.182;2022-09-09T04:21:42;7.00;;;5.70;;
17065;SDS011;23120;52.336;21.182;2022-09-09T04:24:10;8.67;;;5.83;;
17065;SDS011;23120;52.336;21.182;2022-09-09T04:26:38;6.93;;;5.80;;
17065;SDS011;23120;52.336;21.182;2022-09-09T04:29:06;7.87;;;5.97;;
17065;SDS011;23120;52.336;21.182;2022-09-09T04:31:33;8.33;;;5.67;;
17065;SDS011;23120;52.336;21.182;2022-09-09T04:34:00;6.43;;;5.83;;
17065;SDS011;23120;52.336;21.182;2022-09-09T04:36:30;6.37;;;5.53;;
17065;SDS011;23120;52.336;21.182;2022-09-09T04:39:01;6.33;;;5.27;;
17065;SDS011;23120;52.336;21.182;2022-09-09T04:41:28;5.90;;;5.10;;
17065;SDS011;23120;52.336;21.182;2022-09-09T04:43:58;6.70;;;5.20;;
17065;SDS011;23120;52.336;21.182;2022-09-09T04:46:26;5.93;;;5.07;;
17065;SDS011;23120;52.336;21.182;2022-09-09T04:48:53;6.43;;;5.60;;
17065;SDS011;23120;52.336;21.182;2022-09-09T04:51:21;6.30;;;5.30;;
17065;SDS011;23120;52.336;21.182;2022-09-09T04:53:50;7.50;;;5.90;;
17065;SDS011;23120;52.336;21.182;2022-09-09T04:56:19;5.60;;;5.00;;
17065;SDS011;23120;52.336;21.182;2022-09-09T04:58:50;6.23;;;4.70;;
17065;SDS011;23120;52.336;21.182;2022-09-09T05:01:22;6.33;;;4.87;;
17065;SDS011;23120;52.336;21.182;2022-09-09T05:03:50;5.63;;;4.70;;
17065;SDS011;23120;52.336;21.182;2022-09-09T05:06:21;5.63;;;5.10;;
17065;SDS011;23120;52.336;21.182;2022-09-09T05:08:52;5.63;;;4.80;;
17065;SDS011;23120;52.336;21.182;2022-09-09T05:11:24;6.33;;;5.50;;
17065;SDS011;23120;52.336;21.182;2022-09-09T05:13:57;6.53;;;4.67;;
17065;SDS011;23120;52.336;21.182;2022-09-09T05:16:25;8.73;;;4.73;;
17065;SDS011;23120;52.336;21.182;2022-09-09T05:18:52;4.97;;;4.57;;
17065;SDS011;23120;52.336;21.182;2022-09-09T05:21:20;6.50;;;4.70;;
17065;SDS011;23120;52.336;21.182;2022-09-09T05:23:50;4.87;;;4.43;;
17065;SDS011;23120;52.336;21.182;2022-09-09T05:26:18;5.23;;;4.43;;
17065;SDS011;23120;52.336;21.182;2022-09-09T05:28:48;4.23;;;3.93;;
17065;SDS011;23120;52.336;21.182;2022-09-09T05:31:16;4.70;;;4.30;;
17065;SDS011;23120;52.336;21.182;2022-09-09T05:33:47;5.67;;;4.50;;
17065;SDS011;23120;52.336;21.182;2022-09-09T05:36:15;4.83;;;4.27;;
17065;SDS011;23120;52.336;21.182;2022-09-09T05:38:45;4.37;;;3.83;;
17065;SDS011;23120;52.336;21.182;2022-09-09T05:41:13;4.97;;;3.93;;
17065;SDS011;23120;52.336;21.182;2022-09-09T05:43:41;4.77;;;4.37;;
17065;SDS011;23120;52.336;21.182;2022-09-09T05:46:10;4.40;;;4.00;;
17065;SDS011;23120;52.336;21.182;2022-09-09T05:48:39;4.70;;;4.07;;
17065;SDS011;23120;52.336;21.182;2022-09-09T05:51:19;4.27;;;3.87;;
17065;SDS011;23120;52.336;21.182;2022-09-09T05:53:49;4.27;;;3.67;;
17065;SDS011;23120;52.336;21.182;2022-09-09T05:56:18;5.03;;;3.60;;
17065;SDS011;23120;52.336;21.182;2022-09-09T05:58:47;3.77;;;3.20;;
17065;SDS011;23120;52.336;21.182;2022-09-09T06:01:15;4.27;;;3.93;;
17065;SDS011;23120;52.336;21.182;2022-09-09T06:03:44;6.43;;;3.80;;
17065;SDS011;23120;52.336;21.182;2022-09-09T06:06:13;4.33;;;3.93;;
17065;SDS011;23120;52.336;21.182;2022-09-09T06:08:44;4.30;;;3.90;;
17065;SDS011;23120;52.336;21.182;2022-09-09T06:11:13;4.17;;;3.70;;
17065;SDS011;23120;52.336;21.182;2022-09-09T06:13:41;4.10;;;3.70;;
17065;SDS011;23120;52.336;21.182;2022-09-09T06:16:08;4.10;;;3.80;;
17065;SDS011;23120;52.336;21.182;2022-09-09T06:18:38;4.40;;;3.57;;
17065;SDS011;23120;52.336;21.182;2022-09-09T06:21:06;5.27;;;4.33;;
17065;SDS011;23120;52.336;21.182;2022-09-09T06:23:34;3.93;;;3.37;;
17065;SDS011;23120;52.336;21.182;2022-09-09T06:26:04;3.67;;;3.37;;
17065;SDS011;23120;52.336;21.182;2022-09-09T06:28:34;4.43;;;3.50;;
17065;SDS011;23120;52.336;21.182;2022-09-09T06:31:02;3.93;;;3.27;;
17065;SDS011;23120;52.336;21.182;2022-09-09T06:33:31;4.47;;;3.60;;
17065;SDS011;23120;52.336;21.182;2022-09-09T06:36:01;4.53;;;3.90;;
17065;SDS011;23120;52.336;21.182;2022-09-09T06:38:31;3.90;;;3.60;;
17065;SDS011;23120;52.336;21.182;2022-09-09T06:40:59;4.57;;;3.40;;
17065;SDS011;23120;52.336;21.182;2022-09-09T06:43:29;4.70;;;4.30;;
17065;SDS011;23120;52.336;21.182;2022-09-09T06:45:56;5.27;;;3.93;;
17065;SDS011;23120;52.336;21.182;2022-09-09T06:48:24;4.10;;;3.70;;
17065;SDS011;23120;52.336;21.182;2022-09-09T06:50:59;4.20;;;3.80;;
17065;SDS011;23120;52.336;21.182;2022-09-09T06:53:28;5.07;;;4.30;;
17065;SDS011;23120;52.336;21.182;2022-09-09T06:55:56;4.70;;;4.10;;
17065;SDS011;23120;52.336;21.182;2022-09-09T06:58:23;4.53;;;4.13;;
17065;SDS011;23120;52.336;21.182;2022-09-09T07:00:53;5.17;;;4.67;;
17065;SDS011;23120;52.336;21.182;2022-09-09T07:03:27;4.83;;;4.30;;
17065;SDS011;23120;52.336;21.182;2022-09-09T07:05:54;4.87;;;4.47;;
17065;SDS011;23120;52.336;21.182;2022-09-09T07:08:23;5.03;;;4.53;;
17065;SDS011;23120;52.336;21.182;2022-09-09T07:10:50;4.73;;;4.33;;
17065;SDS011;23120;52.336;21.182;2022-09-09T07:13:19;5.03;;;4.53;;
17065;SDS011;23120;52.336;21.182;2022-09-09T07:15:50;5.00;;;4.60;;
17065;SDS011;23120;52.336;21.182;2022-09-09T07:18:18;5.07;;;4.53;;
17065;SDS011;23120;52.336;21.182;2022-09-09T07:20:52;5.50;;;4.93;;
17065;SDS011;23120;52.336;21.182;2022-09-09T07:23:21;5.53;;;5.03;;
17065;SDS011;23120;52.336;21.182;2022-09-09T07:25:48;5.20;;;4.70;;
17065;SDS011;23120;52.336;21.182;2022-09-09T07:28:16;5.60;;;4.97;;
17065;SDS011;23120;52.336;21.182;2022-09-09T07:30:43;5.10;;;4.67;;
17065;SDS011;23120;52.336;21.182;2022-09-09T07:33:20;5.43;;;4.97;;
17065;SDS011;23120;52.336;21.182;2022-09-09T07:35:46;5.83;;;5.23;;
17065;SDS011;23120;52.336;21.182;2022-09-09T07:38:13;5.60;;;4.90;;
17065;SDS011;23120;52.336;21.182;2022-09-09T07:40:41;5.73;;;5.17;;
17065;SDS011;23120;52.336;21.182;2022-09-09T07:43:08;5.67;;;5.10;;
17065;SDS011;23120;52.336;21.182;2022-09-09T07:45:36;5.57;;;5.07;;
17065;SDS011;23120;52.336;21.182;2022-09-09T07:48:03;5.90;;;5.30;;
17065;SDS011;23120;52.336;21.182;2022-09-09T07:50:33;5.87;;;5.33;;
17065;SDS011;23120;52.336;21.182;2022-09-09T07:53:01;5.73;;;5.23;;
17065;SDS011;23120;52.336;21.182;2022-09-09T07:55:31;7.27;;;5.80;;
17065;SDS011;23120;52.336;21.182;2022-09-09T07:57:58;6.10;;;5.50;;
17065;SDS011;23120;52.336;21.182;2022-09-09T08:00:25;7.43;;;5.77;;
17065;SDS011;23120;52.336;21.182;2022-09-09T08:02:55;6.33;;;5.73;;
17065;SDS011;23120;52.336;21.182;2022-09-09T08:05:22;7.17;;;5.60;;
17065;SDS011;23120;52.336;21.182;2022-09-09T08:07:51;6.27;;;5.73;;
17065;SDS011;23120;52.336;21.182;2022-09-09T08:10:18;6.23;;;5.63;;
17065;SDS011;23120;52.336;21.182;2022-09-09T08:12:47;6.17;;;5.60;;
17065;SDS011;23120;52.336;21.182;2022-09-09T08:15:14;6.30;;;5.80;;
17065;SDS011;23120;52.336;21.182;2022-09-09T08:17:41;6.80;;;5.43;;
17065;SDS011;23120;52.336;21.182;2022-09-09T08:20:09;6.57;;;5.90;;
17065;SDS011;23120;52.336;21.182;2022-09-09T08:22:37;9.10;;;6.27;;
17065;SDS011;23120;52.336;21.182;2022-09-09T08:25:06;7.00;;;5.80;;
17065;SDS011;23120;52.336;21.182;2022-09-09T08:27:35;10.37;;;5.93;;
17065;SDS011;23120;52.336;21.182;2022-09-09T08:30:02;8.73;;;5.93;;
17065;SDS011;23120;52.336;21.182;2022-09-09T08:32:30;6.40;;;5.87;;
17065;SDS011;23120;52.336;21.182;2022-09-09T08:34:57;6.73;;;6.13;;
17065;SDS011;23120;52.336;21.182;2022-09-09T08:37:24;6.63;;;6.03;;
17065;SDS011;23120;52.336;21.182;2022-09-09T08:39:51;6.83;;;6.13;;
17065;SDS011;23120;52.336;21.182;2022-09-09T08:42:23;6.70;;;6.10;;
17065;SDS011;23120;52.336;21.182;2022-09-09T08:45:01;6.80;;;6.10;;
17065;SDS011;23120;52.336;21.182;2022-09-09T08:47:40;6.70;;;6.07;;
17065;SDS011;23120;52.336;21.182;2022-09-09T08:50:16;9.27;;;7.10;;
17065;SDS011;23120;52.336;21.182;2022-09-09T08:52:52;7.20;;;6.50;;
17065;SDS011;23120;52.336;21.182;2022-09-09T08:55:26;7.37;;;6.67;;
17065;SDS011;23120;52.336;21.182;2022-09-09T08:58:04;7.30;;;6.40;;
17065;SDS011;23120;52.336;21.182;2022-09-09T09:00:40;6.83;;;6.23;;
17065;SDS011;23120;52.336;21.182;2022-09-09T09:03:22;7.33;;;6.43;;
17065;SDS011;23120;52.336;21.182;2022-09-09T09:05:56;7.87;;;6.50;;
17065;SDS011;23120;52.336;21.182;2022-09-09T09:08:29;7.47;;;6.77;;
17065;SDS011;23120;52.336;21.182;2022-09-09T09:10:59;7.77;;;7.00;;
17065;SDS011;23120;52.336;21.182;2022-09-09T09:13:32;7.37;;;6.67;;
17065;SDS011;23120;52.336;21.182;2022-09-09T09:16:09;7.03;;;6.00;;
17065;SDS011;23120;52.336;21.182;2022-09-09T09:18:43;7.70;;;6.60;;
17065;SDS011;23120;52.336;21.182;2022-09-09T09:21:11;6.97;;;6.27;;
17065;SDS011;23120;52.336;21.182;2022-09-09T09:23:45;6.93;;;6.23;;
17065;SDS011;23120;52.336;21.182;2022-09-09T09:26:18;7.63;;;6.83;;
17065;SDS011;23120;52.336;21.182;2022-09-09T09:28:49;8.67;;;7.07;;
17065;SDS011;23120;52.336;21.182;2022-09-09T09:31:19;9.33;;;7.63;;
17065;SDS011;23120;52.336;21.182;2022-09-09T09:33:47;7.43;;;6.73;;
17065;SDS011;23120;52.336;21.182;2022-09-09T09:36:19;9.33;;;7.23;;
17065;SDS011;23120;52.336;21.182;2022-09-09T09:38:54;8.23;;;7.43;;
17065;SDS011;23120;52.336;21.182;2022-09-09T09:41:29;9.47;;;7.30;;
17065;SDS011;23120;52.336;21.182;2022-09-09T09:43:58;9.40;;;8.20;;
17065;SDS011;23120;52.336;21.182;2022-09-09T09:46:28;9.40;;;7.83;;
17065;SDS011;23120;52.336;21.182;2022-09-09T09:49:04;10.10;;;7.73;;
17065;SDS011;23120;52.336;21.182;2022-09-09T09:51:36;9.37;;;7.67;;
17065;SDS011;23120;52.336;21.182;2022-09-09T09:54:04;10.77;;;8.70;;
17065;SDS011;23120;52.336;21.182;2022-09-09T09:56:41;8.90;;;8.00;;
17065;SDS011;23120;52.336;21.182;2022-09-09T09:59:20;10.57;;;8.80;;
17065;SDS011;23120;52.336;21.182;2022-09-09T10:01:50;10.57;;;9.47;;
17065;SDS011;23120;52.336;21.182;2022-09-09T10:04:18;9.70;;;8.70;;
17065;SDS011;23120;52.336;21.182;2022-09-09T10:06:50;10.13;;;8.77;;
17065;SDS011;23120;52.336;21.182;2022-09-09T10:09:21;11.57;;;8.97;;
17065;SDS011;23120;52.336;21.182;2022-09-09T10:11:52;10.77;;;9.17;;
17065;SDS011;23120;52.336;21.182;2022-09-09T10:14:27;13.70;;;9.53;;
17065;SDS011;23120;52.336;21.182;2022-09-09T10:17:04;11.27;;;9.87;;
17065;SDS011;23120;52.336;21.182;2022-09-09T10:19:40;11.40;;;9.53;;
17065;SDS011;23120;52.336;21.182;2022-09-09T10:22:23;11.47;;;9.60;;
17065;SDS011;23120;52.336;21.182;2022-09-09T10:28:00;12.67;;;10.73;;
17065;SDS011;23120;52.336;21.182;2022-09-09T10:30:53;14.57;;;10.60;;
17065;SDS011;23120;52.336;21.182;2022-09-09T10:33:27;12.70;;;10.93;;
17065;SDS011;23120;52.336;21.182;2022-09-09T10:35:59;13.10;;;11.00;;
17065;SDS011;23120;52.336;21.182;2022-09-09T10:38:36;14.17;;;10.77;;
17065;SDS011;23120;52.336;21.182;2022-09-09T10:41:16;14.10;;;11.37;;
17065;SDS011;23120;52.336;21.182;2022-09-09T10:46:48;12.97;;;11.13;;
17065;SDS011;23120;52.336;21.182;2022-09-09T10:49:27;12.27;;;10.80;;
17065;SDS011;23120;52.336;21.182;2022-09-09T10:52:13;16.77;;;11.13;;
17065;SDS011;23120;52.336;21.182;2022-09-09T10:54:48;13.80;;;11.67;;
17065;SDS011;23120;52.336;21.182;2022-09-09T10:57:25;15.17;;;12.33;;
17065;SDS011;23120;52.336;21.182;2022-09-09T10:59:57;14.37;;;11.33;;
17065;SDS011;23120;52.336;21.182;2022-09-09T11:02:31;15.23;;;11.73;;
17065;SDS011;23120;52.336;21.182;2022-09-09T11:04:59;13.63;;;11.00;;
17065;SDS011;23120;52.336;21.182;2022-09-09T11:07:33;16.90;;;12.13;;
17065;SDS011;23120;52.336;21.182;2022-09-09T11:10:06;14.43;;;12.23;;
17065;SDS011;23120;52.336;21.182;2022-09-09T11:12:39;15.97;;;12.20;;
17065;SDS011;23120;52.336;21.182;2022-09-09T11:15:13;16.83;;;12.73;;
17065;SDS011;23120;52.336;21.182;2022-09-09T11:17:47;14.63;;;11.80;;
17065;SDS011;23120;52.336;21.182;2022-09-09T11:20:19;14.83;;;12.13;;
17065;SDS011;23120;52.336;21.182;2022-09-09T11:22:47;16.67;;;12.77;;
17065;SDS011;23120;52.336;21.182;2022-09-09T11:25:18;14.10;;;12.10;;
17065;SDS011;23120;52.336;21.182;2022-09-09T11:27:53;16.97;;;13.10;;
17065;SDS011;23120;52.336;21.182;2022-09-09T11:30:30;16.90;;;11.97;;
17065;SDS011;23120;52.336;21.182;2022-09-09T11:33:09;16.23;;;12.20;;
17065;SDS011;23120;52.336;21.182;2022-09-09T11:35:56;13.67;;;12.27;;
17065;SDS011;23120;52.336;21.182;2022-09-09T11:38:32;15.50;;;12.30;;
17065;SDS011;23120;52.336;21.182;2022-09-09T11:41:06;13.87;;;11.87;;
17065;SDS011;23120;52.336;21.182;2022-09-09T11:43:38;17.07;;;12.00;;
17065;SDS011;23120;52.336;21.182;2022-09-09T11:46:08;14.53;;;12.23;;
17065;SDS011;23120;52.336;21.182;2022-09-09T11:48:37;15.20;;;12.07;;
17065;SDS011;23120;52.336;21.182;2022-09-09T11:51:09;17.40;;;12.63;;
17065;SDS011;23120;52.336;21.182;2022-09-09T11:53:47;16.33;;;12.57;;
17065;SDS011;23120;52.336;21.182;2022-09-09T11:56:23;17.53;;;12.27;;
17065;SDS011;23120;52.336;21.182;2022-09-09T11:58:56;16.20;;;12.17;;
17065;SDS011;23120;52.336;21.182;2022-09-09T12:01:38;15.03;;;12.67;;
17065;SDS011;23120;52.336;21.182;2022-09-09T12:04:13;16.30;;;12.60;;
17065;SDS011;23120;52.336;21.182;2022-09-09T12:06:44;14.23;;;12.30;;
17065;SDS011;23120;52.336;21.182;2022-09-09T12:09:17;15.40;;;12.80;;
17065;SDS011;23120;52.336;21.182;2022-09-09T12:11:49;16.53;;;12.50;;
17065;SDS011;23120;52.336;21.182;2022-09-09T12:14:21;16.23;;;12.93;;
17065;SDS011;23120;52.336;21.182;2022-09-09T12:16:49;15.33;;;11.97;;
17065;SDS011;23120;52.336;21.182;2022-09-09T12:19:18;16.23;;;13.50;;
17065;SDS011;23120;52.336;21.182;2022-09-09T12:21:49;15.53;;;12.77;;
17065;SDS011;23120;52.336;21.182;2022-09-09T12:24:26;16.70;;;13.27;;
17065;SDS011;23120;52.336;21.182;2022-09-09T12:27:00;17.30;;;14.20;;
17065;SDS011;23120;52.336;21.182;2022-09-09T12:29:37;15.03;;;12.83;;
17065;SDS011;23120;52.336;21.182;2022-09-09T12:32:10;16.97;;;13.47;;
17065;SDS011;23120;52.336;21.182;2022-09-09T12:34:41;17.90;;;13.47;;
17065;SDS011;23120;52.336;21.182;2022-09-09T12:37:15;18.27;;;13.37;;
17065;SDS011;23120;52.336;21.182;2022-09-09T12:39:54;15.23;;;13.57;;
17065;SDS011;23120;52.336;21.182;2022-09-09T12:42:22;16.30;;;12.37;;
17065;SDS011;23120;52.336;21.182;2022-09-09T12:44:51;15.40;;;12.90;;
17065;SDS011;23120;52.336;21.182;2022-09-09T12:47:18;19.07;;;13.90;;
17065;SDS011;23120;52.336;21.182;2022-09-09T12:49:50;16.03;;;12.33;;
17065;SDS011;23120;52.336;21.182;2022-09-09T12:52:19;16.03;;;12.87;;
17065;SDS011;23120;52.336;21.182;2022-09-09T12:54:51;17.43;;;13.23;;
17065;SDS011;23120;52.336;21.182;2022-09-09T12:57:19;15.07;;;13.13;;
17065;SDS011;23120;52.336;21.182;2022-09-09T12:59:50;19.63;;;13.83;;
17065;SDS011;23120;52.336;21.182;2022-09-09T13:02:19;17.23;;;13.13;;
17065;SDS011;23120;52.336;21.182;2022-09-09T13:04:47;17.40;;;13.37;;
17065;SDS011;23120;52.336;21.182;2022-09-09T13:07:17;16.40;;;13.13;;
17065;SDS011;23120;52.336;21.182;2022-09-09T13:09:45;15.17;;;12.87;;
17065;SDS011;23120;52.336;21.182;2022-09-09T13:12:14;17.50;;;13.13;;
17065;SDS011;23120;52.336;21.182;2022-09-09T13:14:44;16.33;;;12.37;;
17065;SDS011;23120;52.336;21.182;2022-09-09T13:17:19;15.90;;;13.20;;
17065;SDS011;23120;52.336;21.182;2022-09-09T13:19:48;16.20;;;13.50;;
17065;SDS011;23120;52.336;21.182;2022-09-09T13:22:21;14.60;;;12.97;;
17065;SDS011;23120;52.336;21.182;2022-09-09T13:25:03;16.53;;;13.63;;
17065;SDS011;23120;52.336;21.182;2022-09-09T13:27:32;16.83;;;13.37;;
17065;SDS011;23120;52.336;21.182;2022-09-09T13:32:47;15.57;;;12.37;;
17065;SDS011;23120;52.336;21.182;2022-09-09T13:35:26;15.40;;;12.00;;
17065;SDS011;23120;52.336;21.182;2022-09-09T13:37:54;19.00;;;13.80;;
17065;SDS011;23120;52.336;21.182;2022-09-09T13:40:21;14.90;;;12.33;;
17065;SDS011;23120;52.336;21.182;2022-09-09T13:42:51;14.97;;;12.23;;
17065;SDS011;23120;52.336;21.182;2022-09-09T13:45:21;14.97;;;12.93;;
17065;SDS011;23120;52.336;21.182;2022-09-09T13:47:51;16.73;;;12.93;;
17065;SDS011;23120;52.336;21.182;2022-09-09T13:50:21;17.30;;;13.20;;
17065;SDS011;23120;52.336;21.182;2022-09-09T13:52:49;14.40;;;12.80;;
17065;SDS011;23120;52.336;21.182;2022-09-09T13:55:17;14.60;;;12.97;;
17065;SDS011;23120;52.336;21.182;2022-09-09T13:57:50;18.97;;;13.63;;
17065;SDS011;23120;52.336;21.182;2022-09-09T14:00:17;16.03;;;13.50;;
17065;SDS011;23120;52.336;21.182;2022-09-09T14:02:44;13.90;;;12.33;;
17065;SDS011;23120;52.336;21.182;2022-09-09T14:05:11;15.77;;;12.67;;
17065;SDS011;23120;52.336;21.182;2022-09-09T14:07:38;17.83;;;12.93;;
17065;SDS011;23120;52.336;21.182;2022-09-09T14:10:07;14.33;;;12.60;;
17065;SDS011;23120;52.336;21.182;2022-09-09T14:12:35;17.07;;;13.53;;
17065;SDS011;23120;52.336;21.182;2022-09-09T14:15:02;15.57;;;12.90;;
17065;SDS011;23120;52.336;21.182;2022-09-09T14:17:30;15.17;;;13.20;;
17065;SDS011;23120;52.336;21.182;2022-09-09T14:19:56;14.73;;;12.33;;
17065;SDS011;23120;52.336;21.182;2022-09-09T14:22:24;16.70;;;13.23;;
17065;SDS011;23120;52.336;21.182;2022-09-09T14:24:51;16.97;;;13.00;;
17065;SDS011;23120;52.336;21.182;2022-09-09T14:27:18;16.93;;;13.13;;
17065;SDS011;23120;52.336;21.182;2022-09-09T14:29:46;14.87;;;12.73;;
17065;SDS011;23120;52.336;21.182;2022-09-09T14:32:13;17.53;;;14.30;;
17065;SDS011;23120;52.336;21.182;2022-09-09T14:34:39;18.20;;;13.50;;
17065;SDS011;23120;52.336;21.182;2022-09-09T14:37:06;16.53;;;13.53;;
17065;SDS011;23120;52.336;21.182;2022-09-09T14:39:33;16.83;;;12.57;;
17065;SDS011;23120;52.336;21.182;2022-09-09T14:42:00;18.83;;;13.47;;
17065;SDS011;23120;52.336;21.182;2022-09-09T14:44:27;15.90;;;13.63;;
17065;SDS011;23120;52.336;21.182;2022-09-09T14:46:55;20.30;;;13.87;;
17065;SDS011;23120;52.336;21.182;2022-09-09T14:49:23;15.10;;;13.03;;
17065;SDS011;23120;52.336;21.182;2022-09-09T14:51:50;14.70;;;13.03;;
17065;SDS011;23120;52.336;21.182;2022-09-09T14:54:17;15.67;;;12.63;;
17065;SDS011;23120;52.336;21.182;2022-09-09T14:56:43;17.67;;;13.60;;
17065;SDS011;23120;52.336;21.182;2022-09-09T14:59:10;14.60;;;13.07;;